Terminal Aerodrome Forecast
Issued by NWS Duluth, MN

Home | Current Version | Previous Version | Text Only | Print | Product List | Glossary On
Versions: 1 2 3 4 5 6 7 8 9 10 11 12 13 14 15 16 17 18 19 20 21
000
FTUS43 KDLH 241700
TAFINL
TAF
KINL 241721Z 2418/2518 12010KT 6SM -RA BR OVC009
      TEMPO 2418/2421 3SM -RA SCT009 OVC012
     FM242100 10009KT 3SM -SN BR OVC015
     FM250000 10007KT 2SM -RASN BR OVC007
     FM250300 05005KT 3SM -SNRA BR OVC006
     FM250700 14004KT 5SM -SN BR OVC003
     FM250900 11003KT 2SM BR VCSH OVC003
     FM251200 33012KT P6SM VCSH OVC030=

USA.gov is the U.S. government's official web portal to all federal, state and local government web resources and services.